Aeroporto :
LOGIN :

Iscrizione | Disclaimer

   EN    FR    IT 

 










Sommario :    VFR   VFR Marginale   IFR   IFR Intensivo   IFR Molto Intensivo
Visibilità : 
Base nubi : 
>= 8 km
>= 3000ft
5 / 8 km
1000 / 3000 ft
1500m / 5 km
500 / 1000 ft
800 / 1500m
200 / 500 ft
< 800m
< 200 ft
Simboli :   Temporali  Nebbia  Neve Forte  Precipitazioni Forti  Vento > 20 kt
SIGMETs :   Varie  Temporali  Ghiacco  Turbolenza  Onda orograficha  Ceneri Vulcaniche






- Altitudine del aeroporto : 844 ft
- Codice IATA : OSR


LKMT - Ostrava-Mosnov

ULTIMO METAR :
  • 171800Z 26007KT 9999 BKN033 02/00 Q1022 NOSIG

METARs OBSOLETI :
  • 171730Z 26007KT 9999 SCT034 01/M01 Q1022 NOSIG
  • 171700Z 23007KT 170V270 9999 SCT034 06/01 Q1022 NOSIG
  • 171630Z 24009KT 9999 BKN034 03/00 Q1022 NOSIG
  • 171600Z 23011KT 9999 SCT034 04/00 Q1022 NOSIG
  • 171547Z 21013KT 9999 SCT034 06/01 Q1022 RMK REG QNH 1016
  • 171530Z VRB02KT 9999 FEW034 04/00 Q1022 NOSIG

TAF TAF LKMT
Valido dal 17 a 18 ore il 19 a 00 ore UTC


171700Z 1718/1900 22012KT 9999 SCT030
TEMPO 1718/1804 22014G26KT
BECMG 1812/1815 9999 BKN018
TEMPO 1816/1900 2800 SNRA BKN012
PROB30
TEMPO 1820/1900 1200 FZRASN



MetMap, La meteo Aeronautica in un colpo d'occhio ! - Copyright ORBIFLY Dicembre 2007 - Disclaimer

ORBIFLY MET'MAP TEAM :

Programmazione e sviluppo : Alexandra Zaïnal
Concezione : Baudouin d'Aumeries
Aiuto per la programmazione : Marc-Olivier Méhu
Supporto tecnico e logistico : Manuel Goepfert
Aiuto per la traduzione : Arnaldo La Scala

Contatto : metmap@orbifly.com




FONTI E CREDITI :

   NOAA